createdAt,value
2016-11-24T00:00:31.318Z,1014.85
2016-11-24T00:01:31.301Z,1014.84
2016-11-24T00:02:31.286Z,1014.82
2016-11-24T00:03:31.269Z,1014.8
2016-11-24T00:04:31.252Z,1014.84
2016-11-24T00:05:31.236Z,1014.79
2016-11-24T00:06:31.218Z,1014.78
2016-11-24T00:07:31.203Z,1014.81
2016-11-24T00:08:31.186Z,1014.82
2016-11-24T00:09:31.170Z,1014.81
2016-11-24T00:10:31.152Z,1014.83
2016-11-24T00:11:31.138Z,1014.87
2016-11-24T00:12:31.121Z,1014.84
2016-11-24T00:13:31.106Z,1014.83
2016-11-24T00:14:31.088Z,1014.89
2016-11-24T00:15:31.072Z,1014.9
2016-11-24T00:16:31.054Z,1014.87
2016-11-24T00:17:31.039Z,1014.87
2016-11-24T00:18:31.022Z,1014.87
2016-11-24T00:19:31.004Z,1014.82
2016-11-24T00:20:30.989Z,1014.82
2016-11-24T00:21:30.972Z,1014.82
2016-11-24T00:22:30.958Z,1014.8
2016-11-24T00:23:30.938Z,1014.81
2016-11-24T00:24:30.923Z,1014.84
2016-11-24T00:25:30.905Z,1014.82
2016-11-24T00:26:30.890Z,1014.81
2016-11-24T00:27:30.873Z,1014.83
2016-11-24T00:28:30.855Z,1014.83
2016-11-24T00:29:30.841Z,1014.83
2016-11-24T00:30:30.825Z,1014.84
2016-11-24T00:31:30.806Z,1014.77
2016-11-24T00:32:30.787Z,1014.77
2016-11-24T00:33:30.774Z,1014.76
2016-11-24T00:34:30.760Z,1014.76
2016-11-24T00:35:30.739Z,1014.77
2016-11-24T00:36:30.724Z,1014.77
2016-11-24T00:37:30.713Z,1014.78
2016-11-24T00:38:30.691Z,1014.81
2016-11-24T00:39:30.676Z,1014.82
2016-11-24T00:40:30.655Z,1014.81
2016-11-24T00:41:30.644Z,1014.86
2016-11-24T00:42:30.628Z,1014.87
2016-11-24T00:43:30.607Z,1014.86
2016-11-24T00:44:30.590Z,1014.9
2016-11-24T00:45:30.575Z,1014.86
2016-11-24T00:46:30.558Z,1014.9
2016-11-24T00:47:30.542Z,1014.86
2016-11-24T00:48:30.523Z,1014.91
2016-11-24T00:49:30.506Z,1014.89
2016-11-24T00:50:30.490Z,1014.89
2016-11-24T00:51:30.477Z,1014.9
2016-11-24T00:52:30.458Z,1014.91
2016-11-24T00:53:30.443Z,1014.92
2016-11-24T00:54:30.426Z,1014.94
2016-11-24T00:55:30.408Z,1014.95
2016-11-24T00:56:30.391Z,1014.98
2016-11-24T00:57:30.374Z,1014.96
2016-11-24T00:58:30.359Z,1014.95
2016-11-24T00:59:30.341Z,1014.97
2016-11-24T01:00:30.325Z,1014.9
2016-11-24T01:01:30.309Z,1014.94
2016-11-24T01:02:30.293Z,1014.95
2016-11-24T01:03:30.275Z,1014.9
2016-11-24T01:04:30.259Z,1014.93
2016-11-24T01:05:30.243Z,1014.96
2016-11-24T01:06:30.227Z,1014.92
2016-11-24T01:07:30.208Z,1014.95
2016-11-24T01:08:30.194Z,1014.93
2016-11-24T01:09:30.175Z,1014.98
2016-11-24T01:10:30.156Z,1014.95
2016-11-24T01:11:30.144Z,1015.03
2016-11-24T01:12:30.124Z,1014.97
2016-11-24T01:13:30.108Z,1014.98
2016-11-24T01:14:30.091Z,1014.94
2016-11-24T01:15:30.076Z,1014.95
2016-11-24T01:16:30.055Z,1014.93
2016-11-24T01:17:30.043Z,1014.93
2016-11-24T01:18:30.027Z,1014.95
2016-11-24T01:19:30.012Z,1014.99
2016-11-24T01:20:29.994Z,1014.96
2016-11-24T01:21:29.977Z,1015.01
2016-11-24T01:22:29.960Z,1015.02
2016-11-24T01:23:29.942Z,1015.04
2016-11-24T01:24:29.927Z,1015.02
2016-11-24T01:25:29.910Z,1015.03
2016-11-24T01:26:29.893Z,1015.03
2016-11-24T01:27:29.878Z,1015.02
2016-11-24T01:28:29.859Z,1015.04
2016-11-24T01:29:29.843Z,1015
2016-11-24T01:30:29.826Z,1015.03
2016-11-24T01:31:29.819Z,1015.01
2016-11-24T01:32:29.794Z,1015
2016-11-24T01:33:29.775Z,1014.98
2016-11-24T01:34:29.761Z,1014.98
2016-11-24T01:35:29.744Z,1015.02
2016-11-24T01:36:29.731Z,1014.95
2016-11-24T01:37:29.710Z,1014.95
2016-11-24T01:38:29.692Z,1014.93
2016-11-24T01:39:29.677Z,1014.96
2016-11-24T01:40:29.660Z,1014.98
2016-11-24T01:41:29.641Z,1014.92
2016-11-24T01:42:29.627Z,1014.95
2016-11-24T01:43:29.613Z,1014.96
2016-11-24T01:44:29.595Z,1014.98
2016-11-24T01:45:29.580Z,1014.99
2016-11-24T01:46:29.561Z,1015.01
2016-11-24T01:47:29.546Z,1015.07
2016-11-24T01:48:29.528Z,1015.03
2016-11-24T01:49:29.511Z,1015.07
2016-11-24T01:50:29.495Z,1015.06
2016-11-24T01:51:29.479Z,1015.1
2016-11-24T01:52:29.462Z,1015.1
2016-11-24T01:53:29.443Z,1015.11
2016-11-24T01:54:29.432Z,1015.14
2016-11-24T01:55:29.410Z,1015.15
2016-11-24T01:56:29.393Z,1015.18
2016-11-24T01:57:29.378Z,1015.17
2016-11-24T01:58:29.361Z,1015.15
2016-11-24T01:59:29.342Z,1015.12
2016-11-24T02:00:29.328Z,1015.11
2016-11-24T02:01:29.314Z,1015.12
2016-11-24T02:02:29.294Z,1015.12
2016-11-24T02:03:29.278Z,1015.1
2016-11-24T02:04:29.257Z,1015.07
2016-11-24T02:05:29.241Z,1015.11
2016-11-24T02:06:29.227Z,1015.13
2016-11-24T02:07:29.212Z,1015.09
2016-11-24T02:08:29.194Z,1015.11
2016-11-24T02:09:29.175Z,1015.07
2016-11-24T02:10:29.162Z,1015.07
2016-11-24T02:11:29.145Z,1015.1
2016-11-24T02:12:29.126Z,1015.06
2016-11-24T02:13:29.110Z,1015.11
2016-11-24T02:14:29.095Z,1015.09
2016-11-24T02:15:29.078Z,1015.08
2016-11-24T02:16:29.061Z,1015.05
2016-11-24T02:17:29.045Z,1015.05
2016-11-24T02:18:29.028Z,1015.01
2016-11-24T02:19:29.011Z,1015.05
2016-11-24T02:20:28.998Z,1015.05
2016-11-24T02:21:28.979Z,1015.06
2016-11-24T02:22:28.961Z,1015.05
2016-11-24T02:23:28.944Z,1015.02
2016-11-24T02:24:28.927Z,1015.05
2016-11-24T02:25:28.912Z,1015.05
2016-11-24T02:26:28.895Z,1015.04
2016-11-24T02:27:28.877Z,1014.98
2016-11-24T02:28:28.862Z,1014.97
2016-11-24T02:29:28.849Z,1014.97
2016-11-24T02:30:28.828Z,1014.96
2016-11-24T02:31:28.809Z,1014.95
2016-11-24T02:32:28.793Z,1014.97
2016-11-24T02:33:28.778Z,1015
2016-11-24T02:34:28.761Z,1015
2016-11-24T02:35:28.744Z,1014.99
2016-11-24T02:36:28.726Z,1015.04
2016-11-24T02:37:28.716Z,1015.04
2016-11-24T02:38:28.694Z,1015.03
2016-11-24T02:39:28.675Z,1015.09
2016-11-24T02:40:28.662Z,1015.08
2016-11-24T02:41:28.645Z,1015.07
2016-11-24T02:42:28.627Z,1015.04
2016-11-24T02:43:28.610Z,1015.09
2016-11-24T02:44:28.595Z,1015.11
2016-11-24T02:45:28.590Z,1015.12
2016-11-24T02:46:28.561Z,1015.14
2016-11-24T02:47:28.544Z,1015.11
2016-11-24T02:48:28.531Z,1015.11
2016-11-24T02:49:28.508Z,1015.12
2016-11-24T02:50:28.494Z,1015.15
2016-11-24T02:51:28.479Z,1015.18
2016-11-24T02:52:28.460Z,1015.19
2016-11-24T02:53:28.442Z,1015.19
2016-11-24T02:54:28.427Z,1015.23
2016-11-24T02:55:28.410Z,1015.23
2016-11-24T02:56:28.391Z,1015.28
2016-11-24T02:57:28.381Z,1015.26
2016-11-24T02:58:28.361Z,1015.28
2016-11-24T02:59:28.343Z,1015.28
2016-11-24T03:00:28.328Z,1015.29
2016-11-24T03:01:28.307Z,1015.27
2016-11-24T03:02:28.298Z,1015.33
2016-11-24T03:03:28.277Z,1015.33
2016-11-24T03:04:28.258Z,1015.37
2016-11-24T03:05:28.240Z,1015.41
2016-11-24T03:06:28.225Z,1015.37
2016-11-24T03:07:28.209Z,1015.44
2016-11-24T03:08:28.193Z,1015.4
2016-11-24T03:09:28.175Z,1015.44
2016-11-24T03:10:28.160Z,1015.46
2016-11-24T03:11:28.142Z,1015.44
2016-11-24T03:12:28.125Z,1015.53
2016-11-24T03:13:28.113Z,1015.49
2016-11-24T03:14:28.093Z,1015.46
2016-11-24T03:15:28.072Z,1015.46
2016-11-24T03:16:28.059Z,1015.45
2016-11-24T03:17:28.041Z,1015.48
2016-11-24T03:18:28.029Z,1015.5
2016-11-24T03:19:28.010Z,1015.46
2016-11-24T03:20:27.990Z,1015.5
2016-11-24T03:21:27.977Z,1015.52
2016-11-24T03:22:27.957Z,1015.52
2016-11-24T03:23:27.944Z,1015.49
2016-11-24T03:24:27.925Z,1015.54
2016-11-24T03:25:27.908Z,1015.51
2016-11-24T03:26:27.891Z,1015.5
2016-11-24T03:27:27.877Z,1015.53
2016-11-24T03:28:27.856Z,1015.53
2016-11-24T03:29:27.841Z,1015.47
2016-11-24T03:30:27.824Z,1015.49
2016-11-24T03:31:27.808Z,1015.46
2016-11-24T03:32:27.791Z,1015.5
2016-11-24T03:33:27.774Z,1015.49
2016-11-24T03:34:27.759Z,1015.48
2016-11-24T03:35:27.742Z,1015.53
2016-11-24T03:36:27.729Z,1015.53
2016-11-24T03:37:27.707Z,1015.57
2016-11-24T03:38:27.690Z,1015.55
2016-11-24T03:39:27.674Z,1015.54
2016-11-24T03:40:27.656Z,1015.53
2016-11-24T03:41:27.641Z,1015.58
2016-11-24T03:42:27.621Z,1015.57
2016-11-24T03:43:27.610Z,1015.59
2016-11-24T03:44:27.589Z,1015.62
2016-11-24T03:45:27.575Z,1015.61
2016-11-24T03:46:27.557Z,1015.63
2016-11-24T03:47:27.539Z,1015.62
2016-11-24T03:48:27.522Z,1015.63
2016-11-24T03:49:27.505Z,1015.63
2016-11-24T03:50:27.490Z,1015.65
2016-11-24T03:51:27.472Z,1015.71
2016-11-24T03:52:27.455Z,1015.66
2016-11-24T03:53:27.438Z,1015.65
2016-11-24T03:54:27.423Z,1015.71
2016-11-24T03:55:27.405Z,1015.72
2016-11-24T03:56:27.389Z,1015.73
2016-11-24T03:57:27.371Z,1015.66
2016-11-24T03:58:27.356Z,1015.7
2016-11-24T03:59:27.337Z,1015.71
2016-11-24T04:00:27.320Z,1015.71
2016-11-24T04:01:27.306Z,1015.69
2016-11-24T04:02:27.287Z,1015.7
2016-11-24T04:03:27.270Z,1015.72
2016-11-24T04:04:27.255Z,1015.73
2016-11-24T04:05:27.237Z,1015.75
2016-11-24T04:06:27.222Z,1015.75
2016-11-24T04:07:27.203Z,1015.8
2016-11-24T04:08:27.188Z,1015.81
2016-11-24T04:09:27.172Z,1015.84
2016-11-24T04:10:27.156Z,1015.86
2016-11-24T04:11:27.136Z,1015.89
2016-11-24T04:12:27.121Z,1015.9
2016-11-24T04:13:27.100Z,1015.9
2016-11-24T04:14:27.086Z,1015.91
2016-11-24T04:15:27.071Z,1015.92
2016-11-24T04:16:27.054Z,1015.9
2016-11-24T04:17:27.033Z,1015.92
2016-11-24T04:18:27.020Z,1015.88
2016-11-24T04:19:27.002Z,1015.87
2016-11-24T04:20:26.988Z,1015.87
2016-11-24T04:21:26.966Z,1015.9
2016-11-24T04:22:26.953Z,1015.89
2016-11-24T04:23:26.936Z,1015.88
2016-11-24T04:24:26.918Z,1015.86
2016-11-24T04:25:26.901Z,1015.9
2016-11-24T04:26:26.884Z,1015.87
2016-11-24T04:27:26.865Z,1015.85
2016-11-24T04:28:26.852Z,1015.87
2016-11-24T04:29:26.836Z,1015.88
2016-11-24T04:30:26.817Z,1015.87
2016-11-24T04:31:26.804Z,1015.9
2016-11-24T04:32:26.783Z,1015.9
2016-11-24T04:33:26.772Z,1015.94
2016-11-24T04:34:26.750Z,1016.03
2016-11-24T04:35:26.733Z,1016.03
2016-11-24T04:36:26.718Z,1015.98
2016-11-24T04:37:26.701Z,1015.98
2016-11-24T04:38:26.682Z,1015.98
2016-11-24T04:39:26.666Z,1015.97
2016-11-24T04:40:26.651Z,1015.95
2016-11-24T04:41:26.632Z,1015.94
2016-11-24T04:42:26.619Z,1015.98
2016-11-24T04:43:26.598Z,1015.95
2016-11-24T04:44:26.581Z,1015.91
2016-11-24T04:45:26.565Z,1015.94
2016-11-24T04:46:26.548Z,1015.9
2016-11-24T04:47:26.529Z,1015.94
2016-11-24T04:48:26.515Z,1015.95
2016-11-24T04:49:26.498Z,1015.99
2016-11-24T04:50:26.481Z,1016.02
2016-11-24T04:51:26.464Z,1016.02
2016-11-24T04:52:26.453Z,1015.98
2016-11-24T04:53:26.430Z,1016.03
2016-11-24T04:54:26.414Z,1015.96
2016-11-24T04:55:26.397Z,1016.01
2016-11-24T04:56:26.384Z,1016.07
2016-11-24T04:57:26.363Z,1016.07
2016-11-24T04:58:26.350Z,1016.08
2016-11-24T04:59:26.330Z,1016.06
2016-11-24T05:00:26.315Z,1016.04
2016-11-24T05:01:26.296Z,1016.04
2016-11-24T05:02:26.279Z,1016.09
2016-11-24T05:03:26.265Z,1016.04
2016-11-24T05:04:26.246Z,1016.06
2016-11-24T05:05:26.227Z,1016.04
2016-11-24T05:06:26.214Z,1016.05
2016-11-24T05:07:26.196Z,1016.08
2016-11-24T05:08:26.177Z,1016.12
2016-11-24T05:09:26.160Z,1016.09
2016-11-24T05:10:26.144Z,1016.11
2016-11-24T05:11:26.129Z,1016.11
2016-11-24T05:12:26.111Z,1016.11
2016-11-24T05:13:26.093Z,1016.11
2016-11-24T05:14:26.077Z,1016.04
2016-11-24T05:15:26.059Z,1016.1
2016-11-24T05:16:26.045Z,1016.06
2016-11-24T05:17:26.025Z,1016.03
2016-11-24T05:18:26.010Z,1016.14
2016-11-24T05:19:25.995Z,1016.09
2016-11-24T05:20:25.977Z,1016.08
2016-11-24T05:21:25.964Z,1016.08
2016-11-24T05:22:25.940Z,1016.1
2016-11-24T05:23:25.925Z,1016.08
2016-11-24T05:24:25.911Z,1016.09
2016-11-24T05:25:25.891Z,1016.1
2016-11-24T05:26:25.874Z,1016.11
2016-11-24T05:27:25.859Z,1016.14
2016-11-24T05:28:25.845Z,1016.18
2016-11-24T05:29:25.826Z,1016.16
2016-11-24T05:30:25.809Z,1016.16
2016-11-24T05:31:25.791Z,1016.16
2016-11-24T05:32:25.779Z,1016.16
2016-11-24T05:33:25.757Z,1016.19
2016-11-24T05:34:25.742Z,1016.16
2016-11-24T05:35:25.728Z,1016.18
2016-11-24T05:36:25.709Z,1016.21
2016-11-24T05:37:25.696Z,1016.2
2016-11-24T05:38:25.675Z,1016.25
2016-11-24T05:39:25.659Z,1016.24
2016-11-24T05:40:25.642Z,1016.27
2016-11-24T05:41:25.629Z,1016.23
2016-11-24T05:42:25.608Z,1016.3
2016-11-24T05:43:25.591Z,1016.26
2016-11-24T05:44:25.577Z,1016.29
2016-11-24T05:45:25.560Z,1016.3
2016-11-24T05:46:25.545Z,1016.3
2016-11-24T05:47:25.526Z,1016.31
2016-11-24T05:48:25.510Z,1016.29
2016-11-24T05:49:25.493Z,1016.3
2016-11-24T05:50:25.484Z,1016.28
2016-11-24T05:51:25.511Z,1016.29
2016-11-24T05:52:25.443Z,1016.23
2016-11-24T05:53:25.426Z,1016.26
2016-11-24T05:54:25.411Z,1016.26
2016-11-24T05:55:25.394Z,1016.28
2016-11-24T05:56:25.378Z,1016.23
2016-11-24T05:57:25.361Z,1016.28
2016-11-24T05:58:25.346Z,1016.22
2016-11-24T05:59:25.327Z,1016.17
2016-11-24T06:00:25.314Z,1016.22
2016-11-24T06:01:25.300Z,1016.18
2016-11-24T06:02:25.279Z,1016.19
2016-11-24T06:03:25.262Z,1016.18
2016-11-24T06:04:25.245Z,1016.16
2016-11-24T06:05:25.230Z,1016.2
2016-11-24T06:06:25.216Z,1016.27
2016-11-24T06:07:25.197Z,1016.27
2016-11-24T06:08:25.180Z,1016.23
2016-11-24T06:09:25.164Z,1016.24
2016-11-24T06:10:25.151Z,1016.27
2016-11-24T06:11:25.130Z,1016.21
2016-11-24T06:12:25.115Z,1016.25
2016-11-24T06:13:25.096Z,1016.18
2016-11-24T06:14:25.081Z,1016.2
2016-11-24T06:15:25.066Z,1016.21
2016-11-24T06:16:25.048Z,1016.22
2016-11-24T06:17:25.037Z,1016.23
2016-11-24T06:18:25.015Z,1016.28
2016-11-24T06:19:25.001Z,1016.23
2016-11-24T06:20:24.985Z,1016.27
2016-11-24T06:21:24.964Z,1016.23
2016-11-24T06:22:24.949Z,1016.3
2016-11-24T06:23:24.932Z,1016.35
2016-11-24T06:24:24.917Z,1016.4
2016-11-24T06:25:24.898Z,1016.36
2016-11-24T06:26:24.882Z,1016.39
2016-11-24T06:27:24.865Z,1016.38
2016-11-24T06:28:24.849Z,1016.36
2016-11-24T06:29:24.833Z,1016.44
2016-11-24T06:30:24.815Z,1016.43
2016-11-24T06:31:24.801Z,1016.4
2016-11-24T06:32:24.781Z,1016.39
2016-11-24T06:33:24.763Z,1016.38
2016-11-24T06:34:24.746Z,1016.37
2016-11-24T06:35:24.733Z,1016.39
2016-11-24T06:36:24.716Z,1016.34
2016-11-24T06:37:24.697Z,1016.36
2016-11-24T06:38:24.678Z,1016.35
2016-11-24T06:39:24.663Z,1016.33
2016-11-24T06:40:24.645Z,1016.34
2016-11-24T06:41:24.634Z,1016.34
2016-11-24T06:42:24.613Z,1016.35
2016-11-24T06:43:24.596Z,1016.32
2016-11-24T06:44:24.577Z,1016.33
2016-11-24T06:45:24.563Z,1016.36
2016-11-24T06:46:24.546Z,1016.37
2016-11-24T06:47:24.529Z,1016.42
2016-11-24T06:48:24.510Z,1016.44
2016-11-24T06:49:24.498Z,1016.48
2016-11-24T06:50:24.479Z,1016.48
2016-11-24T06:51:24.463Z,1016.49
2016-11-24T06:52:24.447Z,1016.51
2016-11-24T06:53:24.435Z,1016.51
2016-11-24T06:54:24.415Z,1016.57
2016-11-24T06:55:24.397Z,1016.52
2016-11-24T06:56:24.392Z,1016.56
2016-11-24T06:57:24.363Z,1016.57
2016-11-24T06:58:24.349Z,1016.64
2016-11-24T06:59:24.331Z,1016.61
2016-11-24T07:00:24.366Z,1016.61
2016-11-24T07:01:24.298Z,1016.64
2016-11-24T07:02:24.281Z,1016.61
2016-11-24T07:03:24.265Z,1016.65
2016-11-24T07:04:24.249Z,1016.66
2016-11-24T07:05:24.232Z,1016.63
2016-11-24T07:06:24.216Z,1016.68
2016-11-24T07:07:24.200Z,1016.65
2016-11-24T07:08:24.184Z,1016.66
2016-11-24T07:09:24.165Z,1016.67
2016-11-24T07:10:24.150Z,1016.68
2016-11-24T07:11:24.135Z,1016.71
2016-11-24T07:12:24.117Z,1016.75
2016-11-24T07:13:24.106Z,1016.72
2016-11-24T07:14:24.083Z,1016.74
2016-11-24T07:15:24.068Z,1016.77
2016-11-24T07:16:24.051Z,1016.81
2016-11-24T07:17:24.034Z,1016.83
2016-11-24T07:18:24.020Z,1016.82
2016-11-24T07:19:24.003Z,1016.91
2016-11-24T07:20:23.992Z,1016.85
2016-11-24T07:21:23.969Z,1016.96
2016-11-24T07:22:23.958Z,1016.93
2016-11-24T07:23:23.938Z,1016.91
2016-11-24T07:24:23.922Z,1016.94
2016-11-24T07:25:23.908Z,1016.94
2016-11-24T07:26:23.891Z,1016.99
2016-11-24T07:27:23.872Z,1017.02
2016-11-24T07:28:23.859Z,1017.05
2016-11-24T07:29:23.842Z,1017.04
2016-11-24T07:30:23.824Z,1017.01
2016-11-24T07:31:23.813Z,1017.09
2016-11-24T07:32:23.794Z,1017.1
2016-11-24T07:33:23.775Z,1017.12
2016-11-24T07:34:23.761Z,1017.07
2016-11-24T07:35:23.744Z,1017.08
2016-11-24T07:36:23.729Z,1017.14
2016-11-24T07:37:23.718Z,1017.13
2016-11-24T07:38:23.696Z,1017.09
2016-11-24T07:39:23.679Z,1017.16
2016-11-24T07:40:23.662Z,1017.09
2016-11-24T07:41:23.649Z,1017.08
2016-11-24T07:42:23.630Z,1017.03
2016-11-24T07:43:23.616Z,1017.07
2016-11-24T07:44:23.601Z,1017.08
2016-11-24T07:45:23.583Z,1017.09
2016-11-24T07:46:23.567Z,1017.09
2016-11-24T07:47:23.548Z,1017.05
2016-11-24T07:48:23.535Z,1017.11
2016-11-24T07:49:23.519Z,1017.09
2016-11-24T07:50:23.500Z,1017.05
2016-11-24T07:51:23.484Z,1017.11
2016-11-24T07:52:23.470Z,1017.11
2016-11-24T07:53:23.449Z,1017.13
2016-11-24T07:54:23.438Z,1017.16
2016-11-24T07:55:23.427Z,1017.19
2016-11-24T07:56:23.405Z,1017.18
2016-11-24T07:57:23.389Z,1017.27
2016-11-24T07:58:23.373Z,1017.23
2016-11-24T07:59:23.361Z,1017.21
2016-11-24T08:00:23.340Z,1017.15
2016-11-24T08:01:23.323Z,1017.2
2016-11-24T08:02:23.309Z,1017.19
2016-11-24T08:03:23.294Z,1017.23
2016-11-24T08:04:23.278Z,1017.2
2016-11-24T08:05:23.263Z,1017.23
2016-11-24T08:06:23.245Z,1017.26
2016-11-24T08:07:23.228Z,1017.26
2016-11-24T08:08:23.215Z,1017.29
2016-11-24T08:09:23.195Z,1017.27
2016-11-24T08:10:23.181Z,1017.29
2016-11-24T08:11:23.164Z,1017.28
2016-11-24T08:12:23.154Z,1017.31
2016-11-24T08:13:23.133Z,1017.29
2016-11-24T08:14:23.116Z,1017.31
2016-11-24T08:15:23.101Z,1017.35
2016-11-24T08:16:23.083Z,1017.37
2016-11-24T08:17:23.067Z,1017.43
2016-11-24T08:18:23.051Z,1017.49
2016-11-24T08:19:23.036Z,1017.44
2016-11-24T08:20:23.021Z,1017.48
2016-11-24T08:21:23.008Z,1017.51
2016-11-24T08:22:22.990Z,1017.52
2016-11-24T08:23:22.971Z,1017.54
2016-11-24T08:24:22.956Z,1017.54
2016-11-24T08:25:22.938Z,1017.53
2016-11-24T08:26:22.923Z,1017.49
2016-11-24T08:27:22.908Z,1017.59
2016-11-24T08:28:22.891Z,1017.53
2016-11-24T08:29:22.876Z,1017.54
2016-11-24T08:30:22.858Z,1017.6
2016-11-24T08:31:22.843Z,1017.64
2016-11-24T08:32:22.828Z,1017.59
2016-11-24T08:33:22.809Z,1017.65
2016-11-24T08:34:22.797Z,1017.61
2016-11-24T08:35:22.779Z,1017.62
2016-11-24T08:36:22.763Z,1017.62
2016-11-24T08:37:22.746Z,1017.58
2016-11-24T08:38:22.735Z,1017.63
2016-11-24T08:39:22.714Z,1017.57
2016-11-24T08:40:22.698Z,1017.59
2016-11-24T08:41:22.683Z,1017.64
2016-11-24T08:42:22.666Z,1017.59
2016-11-24T08:43:22.651Z,1017.66
2016-11-24T08:44:22.633Z,1017.63
2016-11-24T08:45:22.619Z,1017.69
2016-11-24T08:46:22.601Z,1017.62
2016-11-24T08:47:22.588Z,1017.68
2016-11-24T08:48:22.570Z,1017.69
2016-11-24T08:49:22.557Z,1017.68
2016-11-24T08:50:22.539Z,1017.68
2016-11-24T08:51:22.521Z,1017.69
2016-11-24T08:52:22.506Z,1017.68
2016-11-24T08:53:22.495Z,1017.72
2016-11-24T08:54:22.476Z,1017.68
2016-11-24T08:55:22.464Z,1017.73
2016-11-24T08:56:22.443Z,1017.66
2016-11-24T08:57:22.426Z,1017.69
2016-11-24T08:58:22.411Z,1017.69
2016-11-24T08:59:22.393Z,1017.69
2016-11-24T09:00:22.379Z,1017.67
2016-11-24T09:01:22.363Z,1017.69
2016-11-24T09:02:22.346Z,1017.67
2016-11-24T09:03:22.335Z,1017.69
2016-11-24T09:04:22.318Z,1017.71
2016-11-24T09:05:22.298Z,1017.73
2016-11-24T09:06:22.282Z,1017.76
2016-11-24T09:07:22.266Z,1017.74
2016-11-24T09:08:22.254Z,1017.81
2016-11-24T09:09:22.233Z,1017.81
2016-11-24T09:10:22.217Z,1017.82
2016-11-24T09:11:22.201Z,1017.84
2016-11-24T09:12:22.186Z,1017.83
2016-11-24T09:13:22.171Z,1017.84
2016-11-24T09:14:22.153Z,1017.9
2016-11-24T09:15:22.142Z,1017.83
2016-11-24T09:16:22.122Z,1017.86
2016-11-24T09:17:22.105Z,1017.89
2016-11-24T09:18:22.090Z,1017.91
2016-11-24T09:19:22.073Z,1017.95
2016-11-24T09:20:22.059Z,1017.91
2016-11-24T09:21:22.042Z,1017.89
2016-11-24T09:22:22.024Z,1017.93
2016-11-24T09:23:22.011Z,1017.92
2016-11-24T09:24:21.992Z,1017.89
2016-11-24T09:25:21.982Z,1017.91
2016-11-24T09:26:21.961Z,1017.94
2016-11-24T09:27:21.946Z,1017.95
2016-11-24T09:28:21.932Z,1017.99
2016-11-24T09:29:21.913Z,1017.97
2016-11-24T09:30:21.899Z,1017.99
2016-11-24T09:31:21.879Z,1017.97
2016-11-24T09:32:21.864Z,1018
2016-11-24T09:33:21.849Z,1017.98
2016-11-24T09:34:21.835Z,1017.96
2016-11-24T09:35:21.824Z,1018.05
2016-11-24T09:36:21.799Z,1018.01
2016-11-24T09:37:21.786Z,1018.01
2016-11-24T09:38:21.768Z,1018.04
2016-11-24T09:39:21.757Z,1018.08
2016-11-24T09:40:21.738Z,1018.01
2016-11-24T09:41:21.725Z,1017.97
2016-11-24T09:42:21.704Z,1018.03
2016-11-24T09:43:21.692Z,1018
2016-11-24T09:44:21.673Z,1018.06
2016-11-24T09:45:21.660Z,1017.98
2016-11-24T09:46:21.641Z,1018.03
2016-11-24T09:47:21.625Z,1018.04
2016-11-24T09:48:21.614Z,1018.02
2016-11-24T09:49:21.595Z,1017.99
2016-11-24T09:50:21.578Z,1017.99
2016-11-24T09:51:21.565Z,1018.06
2016-11-24T09:52:21.547Z,1018.02
2016-11-24T09:53:21.532Z,1018.05
2016-11-24T09:54:21.517Z,1018.05
2016-11-24T09:55:21.497Z,1018.03
2016-11-24T09:56:21.482Z,1018
2016-11-24T09:57:21.465Z,1018.01
2016-11-24T09:58:21.469Z,1018.01
2016-11-24T09:59:21.435Z,1018.06
2016-11-24T10:00:21.417Z,1018.09
2016-11-24T10:01:21.402Z,1018.14
2016-11-24T10:02:21.390Z,1018.12
2016-11-24T10:03:21.369Z,1018.11
2016-11-24T10:04:21.354Z,1018.18
2016-11-24T10:05:21.337Z,1018.17
2016-11-24T10:06:21.323Z,1018.15
2016-11-24T10:07:21.305Z,1018.19
2016-11-24T10:08:21.290Z,1018.21
2016-11-24T10:09:21.277Z,1018.23
2016-11-24T10:10:21.259Z,1018.16
2016-11-24T10:11:21.242Z,1018.17
2016-11-24T10:12:21.227Z,1018.15
2016-11-24T10:13:21.213Z,1018.11
2016-11-24T10:14:21.194Z,1018.13
2016-11-24T10:15:21.177Z,1018.15
2016-11-24T10:16:21.160Z,1018.05
2016-11-24T10:17:21.146Z,1018.11
2016-11-24T10:18:21.131Z,1018.13
2016-11-24T10:19:21.112Z,1018.1
2016-11-24T10:20:21.097Z,1018.11
2016-11-24T10:21:21.080Z,1018.13
2016-11-24T10:22:21.066Z,1018.03
2016-11-24T10:23:21.049Z,1018.08
2016-11-24T10:24:21.034Z,1018.12
2016-11-24T10:25:21.019Z,1018.09
2016-11-24T10:26:21.005Z,1018.08
2016-11-24T10:27:20.987Z,1018.08
2016-11-24T10:28:20.971Z,1018
2016-11-24T10:29:20.954Z,1017.98
2016-11-24T10:30:20.941Z,1017.95
2016-11-24T10:31:20.919Z,1017.98
2016-11-24T10:32:20.906Z,1017.92
2016-11-24T10:33:20.891Z,1017.92
2016-11-24T10:34:20.872Z,1017.86
2016-11-24T10:35:20.858Z,1017.89
2016-11-24T10:36:20.868Z,1017.92
2016-11-24T10:37:20.828Z,1017.85
2016-11-24T10:38:20.810Z,1017.84
2016-11-24T10:39:20.795Z,1017.84
2016-11-24T10:40:20.778Z,1017.87
2016-11-24T10:41:20.762Z,1017.87
2016-11-24T10:42:20.747Z,1017.84
2016-11-24T10:43:20.732Z,1017.79
2016-11-24T10:44:20.713Z,1017.8
2016-11-24T10:45:20.696Z,1017.8
2016-11-24T10:46:20.682Z,1017.79
2016-11-24T10:47:20.667Z,1017.78
2016-11-24T10:48:20.648Z,1017.76
2016-11-24T10:49:20.634Z,1017.78
2016-11-24T10:50:20.619Z,1017.74
2016-11-24T10:51:20.605Z,1017.7
2016-11-24T10:52:20.586Z,1017.71
2016-11-24T10:53:20.570Z,1017.64
2016-11-24T10:54:20.554Z,1017.62
2016-11-24T10:55:20.536Z,1017.63
2016-11-24T10:56:20.521Z,1017.66
2016-11-24T10:57:20.510Z,1017.66
2016-11-24T10:58:20.492Z,1017.67
2016-11-24T10:59:20.473Z,1017.65
2016-11-24T11:00:20.456Z,1017.67
2016-11-24T11:01:20.442Z,1017.65
2016-11-24T11:02:20.428Z,1017.64
2016-11-24T11:03:20.408Z,1017.64
2016-11-24T11:04:20.396Z,1017.63
2016-11-24T11:05:20.378Z,1017.57
2016-11-24T11:06:20.359Z,1017.59
2016-11-24T11:07:20.345Z,1017.59
2016-11-24T11:08:20.330Z,1017.6
2016-11-24T11:09:20.315Z,1017.65
2016-11-24T11:10:20.298Z,1017.62
2016-11-24T11:11:20.282Z,1017.66
2016-11-24T11:12:20.268Z,1017.68
2016-11-24T11:13:20.257Z,1017.64
2016-11-24T11:14:20.235Z,1017.61
2016-11-24T11:15:20.219Z,1017.6
2016-11-24T11:16:20.205Z,1017.61
2016-11-24T11:17:20.214Z,1017.57
2016-11-24T11:18:20.172Z,1017.58
2016-11-24T11:19:20.156Z,1017.59
2016-11-24T11:20:20.137Z,1017.61
2016-11-24T11:21:20.126Z,1017.62
2016-11-24T11:22:20.106Z,1017.64
2016-11-24T11:23:20.091Z,1017.63
2016-11-24T11:24:20.074Z,1017.66
2016-11-24T11:25:20.063Z,1017.66
2016-11-24T11:26:20.044Z,1017.64
2016-11-24T11:27:20.026Z,1017.64
2016-11-24T11:28:20.012Z,1017.67
2016-11-24T11:29:19.996Z,1017.66
2016-11-24T11:30:19.980Z,1017.71
2016-11-24T11:31:19.964Z,1017.69
2016-11-24T11:32:19.952Z,1017.68
2016-11-24T11:33:19.931Z,1017.69
2016-11-24T11:34:19.917Z,1017.69
2016-11-24T11:35:19.901Z,1017.65
2016-11-24T11:36:19.883Z,1017.71
2016-11-24T11:37:19.871Z,1017.68
2016-11-24T11:38:19.858Z,1017.73
2016-11-24T11:39:19.837Z,1017.68
2016-11-24T11:40:19.821Z,1017.7
2016-11-24T11:41:20.831Z,1017.73
2016-11-24T11:42:19.792Z,1017.68
2016-11-24T11:43:19.774Z,1017.69
2016-11-24T11:44:19.756Z,1017.66
2016-11-24T11:45:19.743Z,1017.66
2016-11-24T11:46:19.726Z,1017.66
2016-11-24T11:47:19.713Z,1017.66
2016-11-24T11:48:19.695Z,1017.69
2016-11-24T11:49:19.683Z,1017.7
2016-11-24T11:50:19.665Z,1017.71
2016-11-24T11:51:19.645Z,1017.7
2016-11-24T11:52:19.630Z,1017.67
2016-11-24T11:53:19.619Z,1017.64
2016-11-24T11:54:19.600Z,1017.68
2016-11-24T11:55:19.583Z,1017.68
2016-11-24T11:56:19.567Z,1017.72
2016-11-24T11:57:19.551Z,1017.69
2016-11-24T11:58:19.534Z,1017.76
2016-11-24T11:59:19.520Z,1017.72
2016-11-24T12:00:19.505Z,1017.69
2016-11-24T12:01:19.492Z,1017.67
2016-11-24T12:02:19.475Z,1017.72
2016-11-24T12:03:19.457Z,1017.76
2016-11-24T12:04:19.440Z,1017.68
2016-11-24T12:05:19.424Z,1017.73
2016-11-24T12:06:19.410Z,1017.71
2016-11-24T12:07:19.393Z,1017.65
2016-11-24T12:08:19.377Z,1017.66